createdAt,value
2022-11-10T00:04:26.302Z,12.74
2022-11-10T00:09:46.822Z,12.79
2022-11-10T00:15:26.107Z,12.84
2022-11-10T00:20:46.242Z,12.88
2022-11-10T00:26:12.209Z,12.94
2022-11-10T00:31:32.358Z,12.99
2022-11-10T00:36:52.626Z,13.02
2022-11-10T00:42:12.675Z,13.06
2022-11-10T00:47:33.118Z,13.10
2022-11-10T00:52:53.538Z,13.13
2022-11-10T00:58:13.886Z,13.16
2022-11-10T01:03:34.984Z,13.19
2022-11-10T01:08:55.377Z,13.19
2022-11-10T01:14:15.874Z,13.22
2022-11-10T01:19:35.999Z,13.25
2022-11-10T01:24:56.555Z,13.26
2022-11-10T01:30:17.425Z,13.26
2022-11-10T01:35:38.061Z,13.27
2022-11-10T01:40:58.949Z,13.27
2022-11-10T01:46:19.521Z,13.28
2022-11-10T01:51:49.073Z,13.31
2022-11-10T01:57:12.684Z,13.33
2022-11-10T02:02:42.310Z,13.33
2022-11-10T02:08:03.877Z,13.35
2022-11-10T02:13:25.072Z,13.35
2022-11-10T02:18:45.358Z,13.33
2022-11-10T02:24:05.569Z,13.34
2022-11-10T02:29:26.369Z,13.33
2022-11-10T02:34:46.252Z,13.30
2022-11-10T02:40:06.823Z,13.30
2022-11-10T02:45:27.206Z,13.34
2022-11-10T02:50:47.375Z,13.34
2022-11-10T02:56:07.688Z,13.35
2022-11-10T03:01:27.892Z,13.35
2022-11-10T03:06:48.147Z,13.34
2022-11-10T03:12:07.949Z,13.33
2022-11-10T03:17:28.444Z,13.33
2022-11-10T03:22:48.577Z,13.34
2022-11-10T03:28:09.328Z,13.35
2022-11-10T03:33:29.392Z,13.36
2022-11-10T03:38:49.798Z,13.35
2022-11-10T03:44:10.045Z,13.33
2022-11-10T03:49:31.259Z,13.33
2022-11-10T03:54:51.858Z,13.31
2022-11-10T04:00:13.687Z,13.31
2022-11-10T04:05:52.264Z,13.29
2022-11-10T04:11:12.505Z,13.27
2022-11-10T04:16:32.596Z,13.27
2022-11-10T04:21:52.854Z,13.27
2022-11-10T04:27:12.955Z,13.24
2022-11-10T04:32:33.196Z,13.23
2022-11-10T04:37:53.270Z,13.23
2022-11-10T04:43:13.353Z,13.25
2022-11-10T04:48:35.133Z,13.25
2022-11-10T04:53:55.934Z,13.22
2022-11-10T04:59:16.048Z,13.22
2022-11-10T05:04:35.951Z,13.21
2022-11-10T05:09:55.943Z,13.20
2022-11-10T05:15:16.283Z,13.18
2022-11-10T05:20:36.554Z,13.14
2022-11-10T05:25:56.974Z,13.14
2022-11-10T05:31:17.184Z,13.10
2022-11-10T05:36:37.255Z,13.07
2022-11-10T05:41:57.495Z,13.05
2022-11-10T05:47:17.688Z,12.99
2022-11-10T05:52:50.032Z,13.00
2022-11-10T05:58:10.369Z,12.96
2022-11-10T06:03:30.869Z,12.93
2022-11-10T06:08:51.945Z,12.89
2022-11-10T06:14:12.305Z,12.89
2022-11-10T06:19:32.194Z,12.86
2022-11-10T06:24:52.639Z,12.84
2022-11-10T06:30:13.006Z,12.84
2022-11-10T06:35:33.152Z,12.81
2022-11-10T06:40:53.086Z,12.83
2022-11-10T06:46:13.344Z,12.83
2022-11-10T06:51:34.308Z,12.84
2022-11-10T06:56:54.391Z,12.86
2022-11-10T07:02:14.923Z,12.87
2022-11-10T07:07:35.280Z,12.88
2022-11-10T07:12:57.477Z,12.91
2022-11-10T07:18:17.453Z,12.91
2022-11-10T07:23:37.385Z,12.96
2022-11-10T07:28:57.587Z,12.98
2022-11-10T07:34:17.973Z,13.05
2022-11-10T07:39:38.349Z,13.09
2022-11-10T07:44:58.178Z,13.12
2022-11-10T07:50:18.786Z,13.18
2022-11-10T07:55:40.868Z,13.20
2022-11-10T08:01:00.901Z,13.22
2022-11-10T08:06:20.939Z,13.25
2022-11-10T08:11:40.855Z,13.29
2022-11-10T08:17:00.738Z,13.33
2022-11-10T08:22:20.863Z,13.31
2022-11-10T08:27:41.150Z,13.34
2022-11-10T08:33:02.610Z,13.40
2022-11-10T08:38:24.276Z,13.45
2022-11-10T08:43:44.459Z,13.41
2022-11-10T08:49:04.705Z,13.39
2022-11-10T08:54:24.839Z,13.41
2022-11-10T08:59:44.877Z,13.40
2022-11-10T09:05:05.330Z,13.47
2022-11-10T09:10:25.779Z,13.54
2022-11-10T09:15:46.350Z,13.62
2022-11-10T09:21:11.730Z,13.68
2022-11-10T09:26:32.088Z,13.71
2022-11-10T09:31:52.429Z,13.76
2022-11-10T09:37:12.419Z,13.80
2022-11-10T09:42:41.580Z,13.93
2022-11-10T09:48:09.478Z,14.05
2022-11-10T09:53:49.219Z,14.11
2022-11-10T09:59:22.010Z,14.18
2022-11-10T10:05:23.888Z,14.29
2022-11-10T10:10:51.514Z,14.36
2022-11-10T10:16:30.652Z,14.46
2022-11-10T10:22:11.811Z,14.42
2022-11-10T10:27:34.785Z,14.35
2022-11-10T10:33:02.901Z,14.36
2022-11-10T10:38:36.415Z,14.38
2022-11-10T10:43:59.450Z,14.44
2022-11-10T10:49:28.601Z,14.49
2022-11-10T10:55:01.002Z,14.53
2022-11-10T11:00:22.637Z,14.68
2022-11-10T11:05:43.248Z,14.75
2022-11-10T11:11:09.547Z,14.87
2022-11-10T11:16:46.129Z,14.97
2022-11-10T11:22:43.734Z,15.03
2022-11-10T11:28:12.967Z,15.07
2022-11-10T11:33:40.239Z,15.10
2022-11-10T11:39:26.242Z,15.08
2022-11-10T11:45:16.101Z,15.12
2022-11-10T11:50:43.723Z,15.14
2022-11-10T11:56:20.430Z,15.21
2022-11-10T12:01:46.795Z,15.32
2022-11-10T12:07:27.917Z,15.43
2022-11-10T12:12:57.864Z,15.53
2022-11-10T12:18:33.630Z,15.59
2022-11-10T12:24:15.454Z,15.65
2022-11-10T12:29:43.550Z,15.67
2022-11-10T12:35:14.095Z,15.72
2022-11-10T12:40:46.341Z,15.79
2022-11-10T12:46:12.036Z,15.85
2022-11-10T12:52:09.706Z,15.92
2022-11-10T12:57:31.366Z,15.99
2022-11-10T13:02:55.393Z,16.07
2022-11-10T13:08:32.953Z,16.09
2022-11-10T13:13:59.951Z,16.11
2022-11-10T13:19:20.327Z,16.17
2022-11-10T13:24:42.997Z,16.22
2022-11-10T13:30:03.648Z,16.21
2022-11-10T13:35:54.728Z,16.19
2022-11-10T13:41:15.568Z,16.24
2022-11-10T13:46:45.009Z,16.33
2022-11-10T13:52:11.209Z,16.40
2022-11-10T13:57:34.958Z,16.46
2022-11-10T14:02:58.124Z,16.48
2022-11-10T14:08:23.074Z,16.48
2022-11-10T14:13:56.441Z,16.53
2022-11-10T14:19:32.198Z,16.50
2022-11-10T14:25:02.459Z,16.40
2022-11-10T14:30:33.507Z,16.40
2022-11-10T14:35:56.576Z,16.42
2022-11-10T14:41:21.962Z,16.45
2022-11-10T14:46:42.523Z,16.44
2022-11-10T14:52:02.477Z,16.49
2022-11-10T14:57:22.882Z,16.48
2022-11-10T15:02:43.392Z,16.44
2022-11-10T15:08:04.554Z,16.40
2022-11-10T15:13:27.798Z,16.38
2022-11-10T15:18:50.966Z,16.33
2022-11-10T15:24:11.435Z,16.24
2022-11-10T15:29:31.647Z,16.14
2022-11-10T15:34:53.013Z,16.03
2022-11-10T15:40:27.921Z,15.92
2022-11-10T15:45:55.210Z,15.79
2022-11-10T15:51:23.011Z,15.67
2022-11-10T15:56:46.332Z,15.54
2022-11-10T16:02:25.822Z,15.43
2022-11-10T16:07:45.737Z,15.32
2022-11-10T16:13:06.113Z,15.21
2022-11-10T16:18:30.902Z,15.05
2022-11-10T16:23:53.358Z,14.89
2022-11-10T16:29:17.699Z,14.79
2022-11-10T16:34:37.745Z,14.67
2022-11-10T16:39:58.140Z,14.58
2022-11-10T16:45:21.868Z,14.49
2022-11-10T16:50:43.015Z,14.41
2022-11-10T16:56:03.048Z,14.31
2022-11-10T17:01:27.910Z,14.20
2022-11-10T17:06:48.173Z,14.14
2022-11-10T17:12:12.572Z,14.06
2022-11-10T17:17:35.292Z,13.97
2022-11-10T17:22:56.579Z,13.88
2022-11-10T17:28:18.313Z,13.82
2022-11-10T17:33:38.492Z,13.76
2022-11-10T17:38:58.586Z,13.67
2022-11-10T17:44:19.501Z,13.60
2022-11-10T17:49:39.482Z,13.53
2022-11-10T17:55:00.009Z,13.48
2022-11-10T18:00:20.454Z,13.43
2022-11-10T18:05:41.258Z,13.40
2022-11-10T18:11:01.564Z,13.34
2022-11-10T18:16:22.026Z,13.29
2022-11-10T18:21:42.085Z,13.25
2022-11-10T18:27:02.063Z,13.20
2022-11-10T18:32:23.335Z,13.15
2022-11-10T18:37:43.948Z,13.12
2022-11-10T18:43:07.484Z,13.08
2022-11-10T18:48:31.104Z,13.02
2022-11-10T18:53:54.946Z,13.00
2022-11-10T18:59:15.519Z,12.95
2022-11-10T19:04:35.608Z,12.91
2022-11-10T19:09:55.707Z,12.86
2022-11-10T19:15:15.735Z,12.80
2022-11-10T19:20:37.147Z,12.76
2022-11-10T19:26:01.307Z,12.72
2022-11-10T19:31:22.971Z,12.67
2022-11-10T19:36:43.671Z,12.64
2022-11-10T19:42:03.933Z,12.63
2022-11-10T19:47:25.091Z,12.57
2022-11-10T19:52:45.515Z,12.55
2022-11-10T19:58:05.835Z,12.51
2022-11-10T20:03:26.097Z,12.48
2022-11-10T20:08:47.737Z,12.46
2022-11-10T20:14:08.234Z,12.40
2022-11-10T20:19:28.694Z,12.33
2022-11-10T20:24:51.269Z,12.29
2022-11-10T20:30:11.730Z,12.25
2022-11-10T20:35:32.343Z,12.21
2022-11-10T20:41:01.709Z,12.17
2022-11-10T20:46:48.428Z,12.12
2022-11-10T20:52:03.386Z,12.07
2022-11-10T20:57:23.464Z,12.04
2022-11-10T21:02:43.949Z,12.03
2022-11-10T21:08:04.166Z,12.02
2022-11-10T21:13:25.881Z,12.00
2022-11-10T21:18:46.231Z,11.99
2022-11-10T21:24:07.870Z,12.00
2022-11-10T21:29:27.797Z,11.98
2022-11-10T21:34:48.101Z,11.95
2022-11-10T21:40:09.076Z,11.92
2022-11-10T21:45:29.413Z,11.89
2022-11-10T21:50:49.683Z,11.86
2022-11-10T21:56:11.273Z,11.84
2022-11-10T22:01:31.945Z,11.79
2022-11-10T22:07:10.509Z,11.73
2022-11-10T22:12:48.927Z,11.62
2022-11-10T22:18:34.223Z,11.56
2022-11-10T22:24:13.096Z,11.48
2022-11-10T22:29:33.768Z,11.45
2022-11-10T22:34:53.630Z,11.41
2022-11-10T22:40:32.467Z,11.37
2022-11-10T22:45:52.750Z,11.31
2022-11-10T22:51:13.167Z,11.28
2022-11-10T22:56:33.773Z,11.23
2022-11-10T23:01:56.034Z,11.17
2022-11-10T23:07:16.482Z,11.13
2022-11-10T23:12:37.448Z,11.09
2022-11-10T23:17:59.974Z,11.06
2022-11-10T23:23:25.093Z,11.02
2022-11-10T23:28:46.333Z,10.96
2022-11-10T23:34:06.993Z,10.93
2022-11-10T23:39:27.190Z,10.89
2022-11-10T23:44:47.439Z,10.86
2022-11-10T23:50:08.124Z,10.83
2022-11-10T23:55:28.757Z,10.79
